Richmond, Indiana
Current Conditions -  °F | °C
As of 9:15 AM on Friday 28 Nov 2014 (Local Time) from KVES Reporting Station
Overcast Overcast  
Wind Chill: 17°   Ceiling: 2200
Heat Index: 23°   Visibility: 10mi
Dew Point: 19°   Wind: 5mph
Humidity: 86%   Direction: 170°S
Pressure: 30.34"   Gusts: NA
Location:  39.83°N, 84.89°W
Report Text: KVES 281415Z AUTO 17004KT 10SM OVC022 M05/M07 A3034 RMK AO2
Loading
Personal Weather Stations






























Interactive Weather Map New forecast layout! Learn more

10-Day Weather Forecast

Advertisements
Track Severe Weather on mobile